Danville Center, Vermont
Current Conditions -  °F | °C
As of 8:55 PM on Monday 24 Nov 2014 (Local Time) from KCDA Reporting Station
Scattered Clouds Scattered Clouds  
Wind Chill: 57°   Ceiling: Unl
Heat Index: 57°   Visibility: 10mi
Dew Point: 52°   Wind: 7mph
Humidity: 83%   Direction: 160°SSE
Pressure: 29.49"   Gusts: NA
Location:  44.4387°N, 72.1135°W
Report Text: KCDA 250155Z AUTO 16006KT 10SM SCT013 SCT060 14/11 A2949 RMK AO2 T01400112
Loading
Personal Weather Stations






























Interactive Weather Map New forecast layout! Learn more

10-Day Weather Forecast

Advertisements
Track Severe Weather on mobile